createdAt,value
2022-08-17T00:00:14.681Z,18.14
2022-08-17T00:05:38.558Z,18.17
2022-08-17T00:10:43.926Z,18.17
2022-08-17T00:15:46.487Z,18.08
2022-08-17T00:20:48.744Z,17.95
2022-08-17T00:25:53.022Z,17.87
2022-08-17T00:30:55.300Z,17.74
2022-08-17T00:35:59.345Z,17.61
2022-08-17T00:41:06.997Z,17.73
2022-08-17T00:46:12.809Z,17.77
2022-08-17T00:51:23.260Z,17.66
2022-08-17T00:56:32.064Z,17.68
2022-08-17T01:01:34.058Z,17.58
2022-08-17T01:06:36.339Z,17.51
2022-08-17T01:11:40.383Z,17.47
2022-08-17T01:16:42.288Z,17.37
2022-08-17T01:21:49.531Z,17.35
2022-08-17T01:26:53.154Z,17.25
2022-08-17T01:32:01.862Z,17.18
2022-08-17T01:37:03.969Z,17.19
2022-08-17T01:42:13.048Z,17.26
2022-08-17T01:47:15.898Z,17.27
2022-08-17T01:52:18.595Z,17.19
2022-08-17T01:57:21.662Z,17.12
2022-08-17T02:02:31.366Z,17.08
2022-08-17T02:07:56.015Z,16.99
2022-08-17T02:12:57.469Z,16.89
2022-08-17T02:17:59.445Z,16.93
2022-08-17T02:23:03.580Z,16.83
2022-08-17T02:28:10.174Z,16.69
2022-08-17T02:33:12.298Z,16.61
2022-08-17T02:38:14.609Z,16.51
2022-08-17T02:43:18.153Z,16.56
2022-08-17T02:48:30.732Z,16.47
2022-08-17T02:53:35.920Z,16.39
2022-08-17T02:58:39.649Z,16.48
2022-08-17T03:03:42.043Z,16.53
2022-08-17T03:08:44.062Z,16.47
2022-08-17T03:13:47.639Z,16.41
2022-08-17T03:18:49.776Z,16.54
2022-08-17T03:23:54.306Z,16.47
2022-08-17T03:28:58.133Z,16.33
2022-08-17T03:34:00.119Z,16.14
2022-08-17T03:39:02.154Z,16.13
2022-08-17T03:44:05.768Z,16.11
2022-08-17T03:49:09.213Z,16.06
2022-08-17T03:54:12.148Z,16.08
2022-08-17T03:59:21.231Z,16.04
2022-08-17T04:04:28.071Z,16.13
2022-08-17T04:09:29.879Z,16.17
2022-08-17T04:14:34.458Z,16.23
2022-08-17T04:19:36.389Z,16.31
2022-08-17T04:24:38.589Z,16.43
2022-08-17T04:29:50.073Z,16.54
2022-08-17T04:34:57.837Z,16.63
2022-08-17T04:40:03.921Z,16.76
2022-08-17T04:45:08.727Z,16.97
2022-08-17T04:50:10.765Z,17.10
2022-08-17T04:55:13.120Z,17.27
2022-08-17T05:00:16.868Z,17.47
2022-08-17T05:05:19.955Z,17.79
2022-08-17T05:10:24.264Z,18.55
2022-08-17T05:15:33.139Z,19.29
2022-08-17T05:20:39.809Z,20.53
2022-08-17T05:25:47.458Z,22.11
2022-08-17T05:30:51.510Z,24.13
2022-08-17T05:35:57.319Z,25.34
2022-08-17T05:41:01.863Z,26.07
2022-08-17T05:46:11.059Z,26.84
2022-08-17T05:51:27.965Z,26.86
2022-08-17T05:56:49.599Z,27.20
2022-08-17T06:02:03.013Z,28.09
2022-08-17T06:07:10.056Z,28.06
2022-08-17T06:12:34.500Z,28.64
2022-08-17T06:17:38.567Z,28.82
2022-08-17T06:22:45.005Z,27.26
2022-08-17T06:27:53.707Z,25.79
2022-08-17T06:33:03.029Z,25.70
2022-08-17T06:38:17.286Z,25.21
2022-08-17T06:43:51.068Z,24.92
2022-08-17T06:49:05.575Z,24.83
2022-08-17T06:54:15.584Z,25.28
2022-08-17T06:59:22.353Z,25.46
2022-08-17T07:04:30.174Z,25.92
2022-08-17T07:09:36.162Z,26.45
2022-08-17T07:14:43.062Z,26.54
2022-08-17T07:19:49.353Z,26.77
2022-08-17T07:24:53.887Z,26.72
2022-08-17T07:30:03.735Z,27.34
2022-08-17T07:35:18.051Z,27.81
2022-08-17T07:40:29.452Z,27.95
2022-08-17T07:45:32.376Z,27.48
2022-08-17T07:50:35.811Z,28.31
2022-08-17T07:55:39.343Z,28.32
2022-08-17T08:00:41.539Z,28.25
2022-08-17T08:05:54.363Z,28.35
2022-08-17T08:11:06.978Z,28.41
2022-08-17T08:16:23.265Z,28.65
2022-08-17T08:21:49.161Z,28.87
2022-08-17T08:26:59.505Z,29.06
2022-08-17T08:32:11.797Z,28.91
2022-08-17T08:37:33.688Z,29.24
2022-08-17T08:42:45.738Z,29.51
2022-08-17T08:48:57.034Z,29.93
2022-08-17T08:53:42.762Z,30.34
2022-08-17T08:58:51.381Z,30.55
2022-08-17T09:04:24.839Z,30.94
2022-08-17T09:09:39.093Z,33.67
2022-08-17T09:14:51.015Z,35.28
2022-08-17T09:19:59.730Z,36.64
2022-08-17T09:25:09.191Z,36.72
2022-08-17T09:30:11.830Z,37.13
2022-08-17T09:35:16.836Z,37.70
2022-08-17T09:40:24.665Z,35.90
2022-08-17T09:45:33.925Z,36.04
2022-08-17T09:51:04.929Z,37.28
2022-08-17T09:56:30.270Z,37.85
2022-08-17T10:01:37.721Z,35.78
2022-08-17T10:06:51.176Z,37.70
2022-08-17T10:12:01.497Z,38.95
2022-08-17T10:17:12.013Z,40.29
2022-08-17T10:22:34.812Z,39.11
2022-08-17T10:27:43.113Z,36.94
2022-08-17T10:32:49.992Z,38.53
2022-08-17T10:38:17.710Z,39.24
2022-08-17T10:43:33.612Z,38.89
2022-08-17T10:48:37.657Z,37.73
2022-08-17T10:53:53.669Z,38.08
2022-08-17T10:58:58.447Z,37.92
2022-08-17T11:04:19.044Z,37.52
2022-08-17T11:09:34.315Z,36.87
2022-08-17T11:14:49.878Z,36.74
2022-08-17T11:20:07.646Z,34.90
2022-08-17T11:25:14.922Z,32.92
2022-08-17T11:30:41.710Z,32.57
2022-08-17T11:35:51.412Z,32.37
2022-08-17T11:41:17.543Z,32.52
2022-08-17T11:46:31.279Z,32.92
2022-08-17T11:52:30.315Z,32.92
2022-08-17T11:58:25.393Z,32.76
2022-08-17T12:03:54.491Z,32.71
2022-08-17T12:09:05.496Z,32.83
2022-08-17T12:14:10.758Z,32.73
2022-08-17T12:19:20.383Z,33.10
2022-08-17T12:24:36.283Z,33.73
2022-08-17T12:29:42.900Z,34.05
2022-08-17T12:34:47.614Z,33.12
2022-08-17T12:39:57.153Z,33.27
2022-08-17T12:44:59.511Z,33.56
2022-08-17T12:50:29.014Z,34.09
2022-08-17T12:55:36.308Z,34.15
2022-08-17T13:00:40.248Z,33.38
2022-08-17T13:05:56.089Z,33.73
2022-08-17T13:11:00.431Z,33.33
2022-08-17T13:16:05.906Z,33.34
2022-08-17T13:21:24.569Z,33.93
2022-08-17T13:26:32.381Z,33.87
2022-08-17T13:31:51.800Z,33.71
2022-08-17T13:37:18.066Z,34.90
2022-08-17T13:42:34.382Z,34.97
2022-08-17T13:48:08.126Z,34.81
2022-08-17T13:53:23.442Z,34.43
2022-08-17T13:58:27.466Z,34.21
2022-08-17T14:03:29.233Z,33.73
2022-08-17T14:08:32.410Z,33.82
2022-08-17T14:13:34.199Z,33.88
2022-08-17T14:18:57.092Z,34.04
2022-08-17T14:24:00.410Z,34.32
2022-08-17T14:29:02.163Z,34.52
2022-08-17T14:34:03.958Z,35.02
2022-08-17T14:39:07.604Z,35.42
2022-08-17T14:44:09.752Z,34.66
2022-08-17T14:49:13.440Z,34.20
2022-08-17T14:54:33.693Z,34.27
2022-08-17T14:59:36.282Z,33.91
2022-08-17T15:04:41.872Z,33.91
2022-08-17T15:09:48.407Z,33.99
2022-08-17T15:14:50.286Z,34.00
2022-08-17T15:19:52.043Z,33.72
2022-08-17T15:24:55.718Z,33.85
2022-08-17T15:29:57.669Z,33.89
2022-08-17T15:35:01.725Z,34.23
2022-08-17T15:40:06.681Z,34.95
2022-08-17T15:45:11.003Z,34.92
2022-08-17T15:50:13.010Z,34.24
2022-08-17T15:55:18.702Z,34.36
2022-08-17T16:00:22.679Z,34.28
2022-08-17T16:05:25.261Z,34.11
2022-08-17T16:10:35.644Z,33.84
2022-08-17T16:15:37.823Z,33.89
2022-08-17T16:20:39.597Z,33.88
2022-08-17T16:25:53.830Z,33.23
2022-08-17T16:30:56.130Z,32.63
2022-08-17T16:35:58.252Z,32.35
2022-08-17T16:41:02.420Z,32.64
2022-08-17T16:46:04.402Z,32.71
2022-08-17T16:51:07.015Z,32.19
2022-08-17T16:56:10.132Z,32.34
2022-08-17T17:01:12.708Z,32.41
2022-08-17T17:06:18.690Z,31.88
2022-08-17T17:11:29.020Z,31.67
2022-08-17T17:16:37.005Z,31.55
2022-08-17T17:21:46.754Z,31.41
2022-08-17T17:27:08.290Z,31.09
2022-08-17T17:32:17.707Z,30.74
2022-08-17T17:37:24.565Z,30.59
2022-08-17T17:42:30.926Z,30.40
2022-08-17T17:47:33.142Z,30.13
2022-08-17T17:52:44.645Z,29.85
2022-08-17T17:57:57.634Z,29.53
2022-08-17T18:03:19.229Z,29.23
2022-08-17T18:08:38.340Z,28.87
2022-08-17T18:13:54.935Z,28.57
2022-08-17T18:18:56.695Z,28.25
2022-08-17T18:24:00.781Z,27.89
2022-08-17T18:29:15.143Z,27.53
2022-08-17T18:34:43.708Z,27.42
2022-08-17T18:39:41.703Z,27.29
2022-08-17T18:44:49.607Z,27.15
2022-08-17T18:49:56.490Z,27.06
2022-08-17T18:55:06.132Z,26.72
2022-08-17T19:00:15.335Z,26.35
2022-08-17T19:05:29.366Z,26.16
2022-08-17T19:10:46.464Z,25.95
2022-08-17T19:16:14.443Z,25.63
2022-08-17T19:21:21.592Z,25.53
2022-08-17T19:26:54.199Z,25.44
2022-08-17T19:31:52.669Z,25.39
2022-08-17T19:37:00.885Z,25.22
2022-08-17T19:42:11.401Z,25.07
2022-08-17T19:47:43.782Z,24.89
2022-08-17T19:52:55.138Z,24.66
2022-08-17T19:58:05.789Z,24.36
2022-08-17T20:03:16.823Z,24.24
2022-08-17T20:08:25.796Z,24.16
2022-08-17T20:13:34.259Z,24.07
2022-08-17T20:18:49.660Z,23.99
2022-08-17T20:23:53.798Z,23.94
2022-08-17T20:29:19.682Z,23.85
2022-08-17T20:34:46.207Z,23.70
2022-08-17T20:40:19.578Z,23.63
2022-08-17T20:46:13.693Z,23.59
2022-08-17T20:51:23.298Z,23.51
2022-08-17T20:56:55.438Z,23.41
2022-08-17T21:02:18.202Z,23.38
2022-08-17T21:07:29.120Z,23.31
2022-08-17T21:12:43.414Z,23.34
2022-08-17T21:17:50.382Z,23.19
2022-08-17T21:23:11.881Z,23.16
2022-08-17T21:28:30.070Z,23.06
2022-08-17T21:33:38.389Z,23.06
2022-08-17T21:38:56.996Z,23.00
2022-08-17T21:44:05.648Z,22.99
2022-08-17T21:49:13.964Z,22.89
2022-08-17T21:54:29.106Z,22.85
2022-08-17T21:59:33.779Z,22.76
2022-08-17T22:04:38.946Z,22.65
2022-08-17T22:09:44.356Z,22.69
2022-08-17T22:14:58.339Z,22.55
2022-08-17T22:20:06.010Z,22.52
2022-08-17T22:25:20.578Z,22.55
2022-08-17T22:30:32.428Z,22.51
2022-08-17T22:35:37.358Z,22.47
2022-08-17T22:40:41.109Z,22.51
2022-08-17T22:45:46.054Z,22.52
2022-08-17T22:50:49.725Z,22.52
2022-08-17T22:55:55.500Z,22.60
2022-08-17T23:01:22.596Z,22.71
2022-08-17T23:06:25.939Z,22.87
2022-08-17T23:11:36.688Z,23.22
2022-08-17T23:16:51.646Z,23.28
2022-08-17T23:21:54.722Z,23.12
2022-08-17T23:26:57.953Z,22.86
2022-08-17T23:32:01.139Z,22.60
2022-08-17T23:37:03.193Z,22.39
2022-08-17T23:42:10.706Z,22.26
2022-08-17T23:47:12.479Z,22.18
2022-08-17T23:52:16.369Z,22.16
2022-08-17T23:57:33.864Z,22.07
